createdAt,value
2023-05-14T00:00:30.936Z,19.75
2023-05-14T00:02:57.713Z,26.42
2023-05-14T00:05:24.742Z,21.80
2023-05-14T00:07:51.321Z,21.88
2023-05-14T00:10:19.192Z,20.08
2023-05-14T00:12:45.807Z,22.10
2023-05-14T00:15:12.694Z,19.48
2023-05-14T00:17:39.383Z,21.67
2023-05-14T00:20:09.478Z,28.13
2023-05-14T00:22:37.247Z,21.02
2023-05-14T00:25:04.382Z,22.38
2023-05-14T00:27:31.232Z,21.67
2023-05-14T00:29:57.779Z,22.35
2023-05-14T00:32:24.561Z,22.27
2023-05-14T00:34:51.223Z,26.40
2023-05-14T00:37:17.890Z,22.25
2023-05-14T00:39:44.443Z,22.33
2023-05-14T00:42:11.053Z,23.52
2023-05-14T00:44:37.718Z,23.63
2023-05-14T00:47:05.322Z,22.70
2023-05-14T00:49:32.414Z,22.05
2023-05-14T00:52:00.496Z,22.50
2023-05-14T00:54:28.258Z,23.65
2023-05-14T00:56:55.300Z,22.48
2023-05-14T00:59:21.848Z,23.70
2023-05-14T01:01:48.587Z,26.17
2023-05-14T01:04:15.949Z,23.42
2023-05-14T01:07:02.488Z,23.85
2023-05-14T01:09:42.865Z,24.50
2023-05-14T01:12:30.495Z,26.23
2023-05-14T01:14:59.614Z,24.95
2023-05-14T01:17:30.145Z,23.85
2023-05-14T01:19:57.009Z,26.50
2023-05-14T01:22:23.655Z,23.02
2023-05-14T01:24:50.241Z,22.95
2023-05-14T01:27:34.740Z,21.80
2023-05-14T01:30:08.230Z,24.45
2023-05-14T01:35:02.198Z,24.90
2023-05-14T01:37:30.708Z,21.77
2023-05-14T01:39:57.708Z,22.48
2023-05-14T01:42:24.642Z,23.48
2023-05-14T01:44:51.453Z,22.52
2023-05-14T01:47:18.002Z,23.45
2023-05-14T01:49:44.566Z,28.48
2023-05-14T01:52:12.090Z,25.88
2023-05-14T01:54:38.788Z,26.25
2023-05-14T01:57:05.623Z,24.13
2023-05-14T01:59:32.284Z,22.63
2023-05-14T02:01:59.013Z,24.08
2023-05-14T02:04:25.921Z,31.20
2023-05-14T02:06:52.625Z,25.38
2023-05-14T02:09:19.267Z,26.95
2023-05-14T02:11:46.370Z,23.52
2023-05-14T02:14:13.030Z,26.75
2023-05-14T02:16:39.638Z,24.92
2023-05-14T02:19:06.489Z,24.90
2023-05-14T02:21:33.214Z,27.60
2023-05-14T02:23:59.770Z,25.30
2023-05-14T02:26:26.482Z,26.20
2023-05-14T02:28:53.077Z,24.27
2023-05-14T02:31:19.670Z,25.30
2023-05-14T02:33:46.295Z,25.17
2023-05-14T02:36:12.829Z,25.83
2023-05-14T02:38:39.448Z,25.98
2023-05-14T02:41:06.084Z,25.90
2023-05-14T02:43:32.763Z,25.95
2023-05-14T02:45:59.335Z,26.63
2023-05-14T02:48:26.182Z,27.75
2023-05-14T02:50:52.791Z,27.10
2023-05-14T02:53:19.415Z,34.00
2023-05-14T02:55:46.003Z,27.42
2023-05-14T02:58:12.671Z,28.73
2023-05-14T03:00:39.393Z,31.38
2023-05-14T03:03:06.561Z,28.08
2023-05-14T03:05:33.729Z,30.40
2023-05-14T03:08:00.995Z,28.23
2023-05-14T03:10:27.561Z,30.10
2023-05-14T03:12:54.267Z,29.95
2023-05-14T03:15:20.878Z,27.85
2023-05-14T03:17:47.467Z,29.90
2023-05-14T03:20:14.026Z,28.17
2023-05-14T03:22:40.794Z,30.75
2023-05-14T03:25:07.968Z,29.10
2023-05-14T03:27:34.720Z,31.40
2023-05-14T03:30:01.475Z,29.70
2023-05-14T03:32:28.101Z,31.40
2023-05-14T03:34:54.864Z,29.00
2023-05-14T03:37:21.477Z,28.33
2023-05-14T03:39:48.010Z,30.55
2023-05-14T03:42:14.609Z,30.60
2023-05-14T03:44:41.234Z,34.00
2023-05-14T03:47:07.883Z,30.27
2023-05-14T03:49:34.444Z,29.75
2023-05-14T03:52:01.286Z,27.35
2023-05-14T03:54:27.885Z,29.13
2023-05-14T03:56:54.628Z,28.30
2023-05-14T03:59:21.217Z,31.27
2023-05-14T04:01:47.806Z,29.05
2023-05-14T04:04:14.567Z,27.13
2023-05-14T04:06:41.166Z,28.35
2023-05-14T04:09:07.757Z,29.60
2023-05-14T04:11:34.294Z,32.28
2023-05-14T04:14:01.226Z,29.33
2023-05-14T04:16:27.873Z,31.25
2023-05-14T04:18:54.559Z,30.08
2023-05-14T04:21:21.174Z,29.38
2023-05-14T04:23:47.741Z,29.23
2023-05-14T04:26:14.300Z,29.35
2023-05-14T04:28:40.986Z,27.25
2023-05-14T04:31:07.663Z,29.40
2023-05-14T04:33:34.271Z,29.92
2023-05-14T04:36:00.943Z,31.67
2023-05-14T04:38:28.225Z,27.00
2023-05-14T04:40:54.788Z,27.48
2023-05-14T04:43:21.428Z,29.10
2023-05-14T04:45:48.006Z,29.85
2023-05-14T04:48:14.713Z,28.27
2023-05-14T04:50:41.292Z,30.02
2023-05-14T04:53:07.866Z,27.20
2023-05-14T04:55:34.533Z,27.55
2023-05-14T04:58:01.160Z,25.73
2023-05-14T05:00:28.759Z,26.08
2023-05-14T05:02:55.703Z,24.42
2023-05-14T05:05:22.540Z,23.30
2023-05-14T05:07:49.138Z,23.88
2023-05-14T05:10:15.811Z,22.77
2023-05-14T05:12:42.406Z,26.83
2023-05-14T05:15:09.777Z,21.70
2023-05-14T05:17:37.199Z,19.85
2023-05-14T05:20:05.872Z,20.98
2023-05-14T05:22:32.503Z,20.38
2023-05-14T05:24:59.896Z,20.35
2023-05-14T05:27:27.018Z,19.58
2023-05-14T05:29:53.576Z,19.88
2023-05-14T05:32:20.185Z,20.58
2023-05-14T05:34:46.773Z,20.75
2023-05-14T05:37:14.922Z,18.75
2023-05-14T05:39:41.885Z,18.35
2023-05-14T05:42:08.900Z,17.35
2023-05-14T05:44:35.591Z,17.30
2023-05-14T05:47:02.284Z,20.23
2023-05-14T05:49:28.920Z,20.25
2023-05-14T05:51:55.606Z,16.85
2023-05-14T05:54:24.774Z,16.70
2023-05-14T05:56:51.863Z,22.92
2023-05-14T05:59:18.521Z,18.77
2023-05-14T06:01:45.075Z,18.05
2023-05-14T06:04:11.693Z,16.25
2023-05-14T06:06:38.272Z,15.85
2023-05-14T06:09:06.925Z,15.52
2023-05-14T06:11:33.614Z,16.02
2023-05-14T06:14:00.221Z,19.20
2023-05-14T06:16:26.976Z,16.50
2023-05-14T06:18:54.837Z,17.98
2023-05-14T06:21:21.800Z,17.80
2023-05-14T06:23:48.430Z,18.65
2023-05-14T06:26:15.179Z,17.25
2023-05-14T06:28:41.831Z,17.35
2023-05-14T06:31:08.493Z,17.05
2023-05-14T06:33:35.430Z,18.77
2023-05-14T06:36:04.988Z,16.83
2023-05-14T06:38:31.923Z,16.50
2023-05-14T06:40:58.530Z,16.17
2023-05-14T06:43:25.661Z,19.33
2023-05-14T06:45:52.625Z,16.73
2023-05-14T06:48:19.438Z,15.18
2023-05-14T06:50:47.487Z,16.48
2023-05-14T06:53:14.453Z,15.98
2023-05-14T06:55:41.298Z,19.00
2023-05-14T06:58:08.348Z,19.13
2023-05-14T07:00:35.286Z,17.92
2023-05-14T07:03:01.923Z,16.13
2023-05-14T07:05:28.637Z,16.08
2023-05-14T07:07:55.285Z,14.60
2023-05-14T07:10:22.471Z,15.88
2023-05-14T07:12:49.869Z,14.77
2023-05-14T07:15:16.709Z,13.77
2023-05-14T07:17:43.329Z,14.80
2023-05-14T07:20:10.303Z,19.33
2023-05-14T07:22:36.885Z,16.63
2023-05-14T07:25:03.571Z,16.80
2023-05-14T07:27:30.187Z,14.68
2023-05-14T07:29:56.755Z,15.30
2023-05-14T07:32:25.189Z,16.85
2023-05-14T07:34:51.953Z,13.13
2023-05-14T07:37:18.939Z,15.35
2023-05-14T07:39:45.655Z,13.35
2023-05-14T07:42:19.337Z,15.48
2023-05-14T07:44:52.069Z,14.65
2023-05-14T07:47:19.335Z,13.88
2023-05-14T07:49:45.907Z,11.85
2023-05-14T07:52:12.512Z,17.05
2023-05-14T07:54:39.056Z,12.73
2023-05-14T07:57:05.741Z,13.93
2023-05-14T07:59:32.489Z,16.63
2023-05-14T08:01:59.043Z,12.52
2023-05-14T08:04:26.511Z,14.60
2023-05-14T08:06:53.086Z,12.15
2023-05-14T08:09:19.657Z,12.77
2023-05-14T08:11:46.244Z,16.48
2023-05-14T08:14:12.953Z,15.95
2023-05-14T08:16:39.695Z,15.68
2023-05-14T08:19:06.337Z,17.38
2023-05-14T08:21:33.152Z,12.57
2023-05-14T08:23:59.753Z,12.82
2023-05-14T08:26:26.579Z,14.35
2023-05-14T08:28:54.562Z,13.55
2023-05-14T08:31:21.183Z,15.48
2023-05-14T08:33:47.786Z,15.32
2023-05-14T08:36:14.482Z,12.23
2023-05-14T08:38:42.331Z,11.90
2023-05-14T08:41:09.628Z,16.80
2023-05-14T08:43:55.552Z,12.93
2023-05-14T08:46:24.116Z,12.30
2023-05-14T08:49:03.884Z,17.23
2023-05-14T08:51:31.531Z,14.35
2023-05-14T08:53:59.359Z,12.60
2023-05-14T08:56:26.977Z,17.63
2023-05-14T08:58:53.534Z,15.05
2023-05-14T09:01:20.577Z,15.50
2023-05-14T09:03:48.001Z,14.50
2023-05-14T09:06:37.944Z,21.83
2023-05-14T09:09:04.928Z,12.60
2023-05-14T09:11:31.608Z,13.05
2023-05-14T09:13:58.209Z,15.23
2023-05-14T09:16:26.219Z,11.95
2023-05-14T09:18:53.101Z,14.02
2023-05-14T09:21:20.264Z,14.05
2023-05-14T09:23:47.831Z,14.18
2023-05-14T09:26:19.622Z,16.85
2023-05-14T09:28:46.470Z,14.25
2023-05-14T09:31:13.392Z,14.40
2023-05-14T09:33:40.047Z,16.52
2023-05-14T09:36:07.093Z,15.20
2023-05-14T09:38:34.220Z,13.98
2023-05-14T09:41:00.975Z,15.52
2023-05-14T09:43:27.562Z,14.20
2023-05-14T09:45:54.156Z,17.35
2023-05-14T09:48:22.409Z,15.43
2023-05-14T09:50:49.135Z,17.67
2023-05-14T09:53:15.985Z,16.58
2023-05-14T09:55:42.638Z,14.35
2023-05-14T09:58:09.406Z,16.67
2023-05-14T10:00:36.421Z,13.68
2023-05-14T10:03:06.417Z,13.20
2023-05-14T10:05:37.148Z,12.88
2023-05-14T10:08:10.110Z,12.95
2023-05-14T10:10:37.781Z,12.93
2023-05-14T10:13:09.973Z,12.95
2023-05-14T10:15:53.679Z,12.48
2023-05-14T10:18:23.723Z,13.00
2023-05-14T10:21:01.070Z,13.85
2023-05-14T10:23:27.887Z,13.88
2023-05-14T10:25:54.606Z,12.35
2023-05-14T10:28:21.462Z,14.65
2023-05-14T10:30:49.524Z,12.30
2023-05-14T10:33:18.264Z,13.43
2023-05-14T10:36:11.102Z,13.00
2023-05-14T10:38:38.763Z,14.20
2023-05-14T10:41:07.586Z,15.35
2023-05-14T10:43:39.328Z,14.88
2023-05-14T10:46:07.300Z,13.27
2023-05-14T10:48:34.619Z,15.18
2023-05-14T10:51:02.353Z,14.55
2023-05-14T10:53:33.646Z,14.60
2023-05-14T10:56:07.858Z,14.02
2023-05-14T10:58:43.500Z,12.63
2023-05-14T11:01:12.667Z,16.20
2023-05-14T11:03:46.855Z,14.77
2023-05-14T11:06:15.941Z,14.88
2023-05-14T11:08:42.968Z,14.32
2023-05-14T11:11:09.842Z,14.38
2023-05-14T11:13:36.529Z,15.25
2023-05-14T11:16:15.176Z,14.98
2023-05-14T11:18:53.894Z,12.57
2023-05-14T11:21:20.619Z,16.27
2023-05-14T11:23:47.257Z,16.20
2023-05-14T11:26:13.946Z,13.55
2023-05-14T11:28:40.826Z,13.00
2023-05-14T11:31:07.703Z,11.80
2023-05-14T11:33:34.315Z,11.32
2023-05-14T11:36:00.967Z,14.13
2023-05-14T11:38:27.551Z,12.90
2023-05-14T11:40:59.275Z,14.35
2023-05-14T11:43:29.312Z,14.38
2023-05-14T11:45:56.623Z,11.68
2023-05-14T11:48:24.094Z,14.00
2023-05-14T11:50:52.946Z,11.57
2023-05-14T11:53:28.543Z,13.68
2023-05-14T11:55:55.428Z,13.07
2023-05-14T11:58:22.153Z,14.13
2023-05-14T12:00:53.483Z,15.77
2023-05-14T12:03:26.304Z,16.85
2023-05-14T12:06:00.276Z,12.90
2023-05-14T12:08:31.465Z,15.85
2023-05-14T12:11:01.791Z,13.77
2023-05-14T12:13:30.094Z,16.13
2023-05-14T12:16:02.259Z,15.18
2023-05-14T12:18:31.753Z,11.17
2023-05-14T12:21:07.922Z,11.70
2023-05-14T12:23:34.702Z,11.63
2023-05-14T12:26:06.916Z,12.18
2023-05-14T12:28:38.218Z,11.85
2023-05-14T12:31:05.760Z,18.17
2023-05-14T12:33:32.475Z,12.38
2023-05-14T12:36:19.833Z,13.85
2023-05-14T12:38:47.790Z,12.70
2023-05-14T12:41:14.352Z,10.60
2023-05-14T12:43:44.025Z,8.95
2023-05-14T12:46:10.981Z,13.05
2023-05-14T12:48:37.562Z,8.75
2023-05-14T12:51:04.167Z,12.02
2023-05-14T12:53:30.780Z,11.38
2023-05-14T12:55:57.354Z,9.63
2023-05-14T12:58:23.998Z,10.95
2023-05-14T13:00:50.817Z,14.07
2023-05-14T13:03:17.752Z,12.70
2023-05-14T13:05:44.483Z,12.38
2023-05-14T13:08:11.034Z,12.27
2023-05-14T13:10:37.599Z,9.57
2023-05-14T13:13:04.176Z,12.80
2023-05-14T13:15:32.512Z,8.95
2023-05-14T13:17:59.266Z,7.90
2023-05-14T13:20:27.560Z,9.95
2023-05-14T13:22:54.132Z,13.30
2023-05-14T13:25:20.812Z,8.63
2023-05-14T13:27:47.444Z,7.75
2023-05-14T13:30:14.254Z,10.02
2023-05-14T13:32:42.250Z,11.95
2023-05-14T13:35:09.497Z,11.25
2023-05-14T13:37:36.302Z,7.35
2023-05-14T13:40:04.537Z,8.48
2023-05-14T13:42:31.195Z,8.48
2023-05-14T13:44:59.392Z,10.82
2023-05-14T13:47:26.394Z,8.90
2023-05-14T13:49:53.878Z,11.10
2023-05-14T13:52:20.647Z,7.53
2023-05-14T13:54:47.592Z,8.02
2023-05-14T13:57:14.372Z,8.25
2023-05-14T13:59:41.512Z,6.95
2023-05-14T14:02:08.654Z,6.47
2023-05-14T14:04:35.215Z,6.88
2023-05-14T14:07:01.883Z,8.05
2023-05-14T14:09:28.488Z,7.50
2023-05-14T14:11:55.157Z,6.05
2023-05-14T14:14:21.757Z,5.78
2023-05-14T14:16:48.392Z,8.65
2023-05-14T14:19:16.231Z,7.80
2023-05-14T14:21:45.069Z,4.90
2023-05-14T14:24:11.714Z,7.25
2023-05-14T14:26:38.425Z,8.13
2023-05-14T14:29:05.021Z,8.55
2023-05-14T14:31:31.590Z,9.48
2023-05-14T14:33:58.165Z,6.07
2023-05-14T14:36:24.737Z,5.85
2023-05-14T14:38:51.552Z,5.63
2023-05-14T14:41:18.406Z,9.18
2023-05-14T14:43:44.956Z,9.25
2023-05-14T14:46:11.615Z,7.72
2023-05-14T14:48:38.494Z,7.72
2023-05-14T14:51:09.135Z,8.05
2023-05-14T14:53:37.191Z,6.90
2023-05-14T14:56:04.460Z,4.90
2023-05-14T14:58:31.359Z,5.65
2023-05-14T15:00:58.675Z,8.57
2023-05-14T15:03:26.171Z,9.25
2023-05-14T15:05:53.778Z,5.75
2023-05-14T15:08:24.658Z,7.55
2023-05-14T15:10:51.416Z,6.00
2023-05-14T15:13:18.089Z,4.88
2023-05-14T15:15:44.773Z,11.00
2023-05-14T15:18:11.523Z,6.63
2023-05-14T15:20:38.119Z,9.35
2023-05-14T15:23:04.727Z,10.15
2023-05-14T15:25:31.351Z,7.15
2023-05-14T15:27:57.956Z,5.63
2023-05-14T15:30:24.572Z,7.15
2023-05-14T15:32:51.229Z,6.25
2023-05-14T15:35:18.636Z,14.30
2023-05-14T15:37:45.349Z,14.02
2023-05-14T15:40:12.507Z,16.55
2023-05-14T15:42:42.206Z,17.05
2023-05-14T15:45:10.423Z,13.73
2023-05-14T15:47:37.476Z,11.60
2023-05-14T15:50:05.351Z,15.32
2023-05-14T15:52:32.178Z,12.80
2023-05-14T15:54:59.708Z,18.58
2023-05-14T15:57:26.473Z,24.75
2023-05-14T15:59:53.163Z,13.38
2023-05-14T16:02:19.782Z,15.85
2023-05-14T16:04:46.403Z,15.38
2023-05-14T16:07:13.471Z,14.98
2023-05-14T16:09:40.262Z,13.57
2023-05-14T16:12:08.027Z,17.98
2023-05-14T16:14:35.340Z,17.02
2023-05-14T16:17:02.204Z,17.98
2023-05-14T16:19:28.842Z,18.85
2023-05-14T16:21:55.573Z,17.60
2023-05-14T16:24:22.265Z,14.50
2023-05-14T16:26:48.940Z,12.00
2023-05-14T16:29:15.912Z,16.25
2023-05-14T16:31:42.611Z,13.63
2023-05-14T16:34:09.267Z,18.63
2023-05-14T16:36:36.004Z,14.25
2023-05-14T16:41:32.722Z,18.85
2023-05-14T16:43:59.371Z,21.25
2023-05-14T16:46:27.075Z,19.17
2023-05-14T16:48:53.823Z,16.58
2023-05-14T16:51:20.572Z,15.05
2023-05-14T16:53:47.341Z,17.90
2023-05-14T16:56:13.977Z,16.52
2023-05-14T16:58:40.619Z,23.25
2023-05-14T17:01:09.404Z,18.27
2023-05-14T17:03:36.816Z,17.02
2023-05-14T17:06:04.696Z,17.55
2023-05-14T17:08:33.617Z,10.70
2023-05-14T17:11:00.367Z,21.73
2023-05-14T17:13:27.075Z,14.25
2023-05-14T17:15:53.816Z,19.02
2023-05-14T17:18:20.499Z,17.27
2023-05-14T17:20:47.143Z,12.63
2023-05-14T17:23:13.767Z,18.35
2023-05-14T17:25:40.589Z,15.50
2023-05-14T17:28:07.389Z,13.82
2023-05-14T17:30:34.019Z,14.85
2023-05-14T17:33:00.721Z,21.85
2023-05-14T17:35:27.596Z,18.52
2023-05-14T17:37:54.208Z,18.60
2023-05-14T17:40:20.797Z,18.52
2023-05-14T17:42:47.446Z,14.00
2023-05-14T17:45:15.490Z,16.65
2023-05-14T17:47:42.328Z,17.67
2023-05-14T17:50:09.350Z,15.60
2023-05-14T17:52:36.039Z,15.88
2023-05-14T17:55:02.721Z,13.50
2023-05-14T17:57:29.688Z,13.13
2023-05-14T17:59:56.314Z,13.88
2023-05-14T18:02:22.968Z,14.73
2023-05-14T18:04:49.671Z,13.23
2023-05-14T18:07:16.540Z,12.43
2023-05-14T18:09:43.219Z,17.42
2023-05-14T18:12:10.015Z,15.25
2023-05-14T18:14:36.735Z,17.23
2023-05-14T18:17:03.826Z,18.65
2023-05-14T18:19:30.451Z,22.73
2023-05-14T18:21:57.147Z,13.10
2023-05-14T18:24:23.826Z,17.88
2023-05-14T18:26:50.795Z,16.35
2023-05-14T18:29:17.419Z,17.85
2023-05-14T18:31:44.383Z,15.07
2023-05-14T18:34:11.894Z,18.58
2023-05-14T18:36:38.988Z,14.82
2023-05-14T18:39:05.671Z,17.63
2023-05-14T18:41:32.218Z,14.70
2023-05-14T18:43:59.407Z,15.75
2023-05-14T18:46:26.808Z,16.08
2023-05-14T18:48:54.837Z,14.10
2023-05-14T18:51:21.582Z,15.38
2023-05-14T18:53:48.438Z,13.35
2023-05-14T18:56:20.360Z,11.95
2023-05-14T18:58:47.270Z,17.98
2023-05-14T19:01:14.227Z,17.80
2023-05-14T19:03:42.448Z,13.80
2023-05-14T19:06:09.419Z,13.63
2023-05-14T19:08:36.118Z,13.18
2023-05-14T19:11:03.125Z,19.15
2023-05-14T19:13:30.527Z,16.83
2023-05-14T19:15:57.346Z,18.83
2023-05-14T19:18:24.069Z,13.77
2023-05-14T19:20:51.938Z,15.02
2023-05-14T19:23:18.696Z,16.35
2023-05-14T19:25:45.545Z,19.65
2023-05-14T19:28:12.292Z,20.38
2023-05-14T19:30:41.977Z,14.90
2023-05-14T19:33:14.637Z,18.13
2023-05-14T19:35:41.405Z,13.85
2023-05-14T19:38:10.292Z,10.45
2023-05-14T19:40:37.567Z,15.63
2023-05-14T19:43:04.215Z,14.77
2023-05-14T19:45:36.270Z,11.10
2023-05-14T19:48:03.125Z,12.73
2023-05-14T19:50:29.925Z,18.45
2023-05-14T19:52:57.640Z,12.00
2023-05-14T19:55:24.495Z,12.75
2023-05-14T19:57:51.904Z,13.07
2023-05-14T20:00:18.749Z,14.82
2023-05-14T20:02:45.633Z,21.17
2023-05-14T20:05:12.400Z,14.40
2023-05-14T20:07:40.347Z,16.80
2023-05-14T20:10:07.877Z,19.00
2023-05-14T20:12:34.543Z,14.90
2023-05-14T20:15:01.170Z,17.83
2023-05-14T20:17:27.892Z,12.95
2023-05-14T20:19:54.642Z,15.85
2023-05-14T20:22:21.261Z,16.50
2023-05-14T20:24:47.883Z,11.57
2023-05-14T20:27:14.518Z,16.88
2023-05-14T20:29:41.253Z,13.77
2023-05-14T20:32:08.277Z,14.65
2023-05-14T20:34:34.827Z,14.65
2023-05-14T20:37:01.484Z,16.40
2023-05-14T20:39:28.276Z,16.65
2023-05-14T20:41:55.042Z,12.40
2023-05-14T20:44:21.660Z,12.70
2023-05-14T20:46:48.500Z,14.00
2023-05-14T20:49:15.269Z,12.57
2023-05-14T20:51:42.038Z,16.75
2023-05-14T20:54:08.671Z,16.70
2023-05-14T20:56:36.489Z,18.38
2023-05-14T20:59:03.131Z,20.55
2023-05-14T21:01:29.768Z,17.75
2023-05-14T21:03:56.435Z,15.68
2023-05-14T21:06:23.342Z,18.65
2023-05-14T21:08:49.918Z,18.67
2023-05-14T21:11:16.507Z,12.93
2023-05-14T21:13:44.261Z,17.50
2023-05-14T21:16:12.900Z,20.52
2023-05-14T21:18:39.612Z,24.33
2023-05-14T21:21:06.214Z,15.63
2023-05-14T21:23:33.098Z,19.00
2023-05-14T21:25:59.801Z,16.70
2023-05-14T21:28:26.435Z,18.23
2023-05-14T21:30:53.088Z,18.35
2023-05-14T21:33:19.678Z,17.20
2023-05-14T21:35:46.366Z,17.05
2023-05-14T21:38:13.051Z,19.20
2023-05-14T21:40:39.629Z,16.30
2023-05-14T21:43:06.467Z,23.67
2023-05-14T21:45:33.144Z,17.08
2023-05-14T21:47:59.756Z,21.48
2023-05-14T21:50:27.277Z,22.80
2023-05-14T21:52:53.944Z,19.83
2023-05-14T21:55:20.615Z,21.88
2023-05-14T21:57:47.277Z,19.35
2023-05-14T22:00:18.524Z,18.83
2023-05-14T22:02:45.233Z,24.20
2023-05-14T22:05:11.843Z,18.52
2023-05-14T22:07:38.549Z,17.77
2023-05-14T22:10:05.415Z,24.20
2023-05-14T22:12:32.337Z,18.52
2023-05-14T22:14:58.894Z,23.02
2023-05-14T22:17:28.166Z,20.40
2023-05-14T22:19:54.862Z,19.65
2023-05-14T22:22:21.419Z,21.98
2023-05-14T22:24:48.041Z,20.88
2023-05-14T22:27:14.682Z,19.60
2023-05-14T22:29:41.585Z,20.52
2023-05-14T22:32:08.669Z,20.95
2023-05-14T22:34:35.326Z,20.58
2023-05-14T22:37:02.999Z,22.45
2023-05-14T22:39:29.901Z,28.48
2023-05-14T22:41:56.662Z,21.08
2023-05-14T22:44:23.614Z,22.88
2023-05-14T22:46:50.830Z,23.23
2023-05-14T22:49:17.630Z,21.88
2023-05-14T22:51:44.193Z,26.80
2023-05-14T22:54:11.027Z,24.95
2023-05-14T22:56:38.658Z,26.13
2023-05-14T22:59:05.417Z,26.20
2023-05-14T23:01:32.250Z,26.33
2023-05-14T23:03:58.874Z,24.80
2023-05-14T23:06:25.718Z,28.52
2023-05-14T23:08:52.341Z,29.27
2023-05-14T23:11:19.192Z,29.38
2023-05-14T23:13:46.271Z,27.52
2023-05-14T23:16:12.944Z,26.70
2023-05-14T23:18:39.701Z,25.50
2023-05-14T23:21:06.471Z,26.63
2023-05-14T23:23:33.135Z,26.27
2023-05-14T23:25:59.964Z,27.35
2023-05-14T23:28:26.794Z,28.42
2023-05-14T23:30:53.367Z,27.55
2023-05-14T23:33:19.977Z,31.63
2023-05-14T23:35:46.675Z,29.40
2023-05-14T23:38:13.427Z,30.23
2023-05-14T23:40:40.005Z,30.83
2023-05-14T23:43:06.676Z,31.35
2023-05-14T23:45:33.453Z,32.45
2023-05-14T23:48:01.776Z,36.83
2023-05-14T23:50:28.390Z,36.42
2023-05-14T23:52:55.904Z,33.55
2023-05-14T23:55:22.731Z,33.22
2023-05-14T23:57:49.659Z,32.55
